Time;durP1;ratioP1;P1;durP2;ratioP2;P2;SDS_P1;SDS_P2;PMS_P1;PMS_P2;Temp;Humidity;BMP_temperature;BMP_pressure;BME280_temperature;BME280_humidity;BME280_pressure;Samples;Min_cycle;Max_cycle;Signal;HPM_P1;HPM_P2
2024/03/20 00:01:09;;;;;;;;;;;;;;;8.01;49.10;95797.88;4961735;28;19926;-68
2024/03/20 00:03:34;;;;;;;;;;;;;;;8.09;48.77;95799.72;4956919;28;20005;-67
2024/03/20 00:05:59;;;;;;;;;;;;;;;8.12;47.99;95793.28;4956961;28;19930;-66
2024/03/20 00:08:25;;;;;;;;;;;;;;;8.17;48.46;95797.13;4956647;28;19977;-66
2024/03/20 00:10:50;;;;;;;;;;;;;;;8.25;48.06;95792.84;4955892;28;19927;-67
2024/03/20 00:13:16;;;;;;;;;;;;;;;8.30;47.75;95793.22;4952042;28;19918;-67
2024/03/20 00:15:41;;;;;;;;;;;;;;;8.35;47.93;95787.41;4958273;28;20470;-67
2024/03/20 00:18:07;;;;;;;;;;;;;;;8.39;47.90;95791.41;4950320;28;20110;-67
2024/03/20 00:20:32;;;;;;;;;;;;;;;8.39;47.96;95789.59;4956463;28;20037;-67
2024/03/20 00:22:58;;;;;;;;;;;;;;;8.41;47.94;95782.31;4959313;28;19957;-67
2024/03/20 00:25:23;;;;;;;;;;;;;;;8.45;47.96;95782.81;4959330;28;20747;-67
2024/03/20 00:27:48;;;;;;;;;;;;;;;8.49;47.41;95781.50;4960877;28;19922;-67
2024/03/20 00:30:14;;;;;;;;;;;;;;;8.52;47.70;95783.00;4952391;28;19923;-67
2024/03/20 00:32:39;;;;;;;;;;;;;;;8.56;47.46;95782.53;4954072;28;19926;-67
2024/03/20 00:35:05;;;;;;;;;;;;;;;8.60;47.47;95785.69;4956423;28;19926;-66
2024/03/20 00:37:30;;;;;;;;;;;;;;;8.62;47.24;95794.34;4958318;28;19937;-67
2024/03/20 00:39:55;;;;;;;;;;;;;;;8.64;47.17;95788.88;4958647;28;19932;-67
2024/03/20 00:42:22;;;;;;;;;;;;;;;8.66;47.16;95786.84;4952053;28;19957;-67
2024/03/20 00:44:47;;;;;;;;;;;;;;;8.72;47.35;95783.56;4953931;28;19929;-67
2024/03/20 00:47:12;;;;;;;;;;;;;;;8.73;47.32;95779.06;4951301;28;20016;-67
2024/03/20 00:49:37;;;;;;;;;;;;;;;8.74;47.16;95770.94;4959099;28;19976;-67
2024/03/20 00:52:03;;;;;;;;;;;;;;;8.77;47.10;95775.94;4964324;28;21006;-67
2024/03/20 00:54:28;;;;;;;;;;;;;;;8.75;47.10;95772.63;4952647;28;19926;-67
2024/03/20 00:56:53;;;;;;;;;;;;;;;8.76;47.22;95776.94;4957378;28;19999;-67
2024/03/20 00:59:20;;;;;;;;;;;;;;;8.78;47.14;95774.94;4957207;28;19922;-66
2024/03/20 01:01:45;;;;;;;;;;;;;;;8.78;47.29;95769.63;4956124;28;20084;-67
2024/03/20 01:04:12;;;;;;;;;;;;;;;8.80;47.27;95769.47;4957592;28;20604;-67
2024/03/20 01:06:37;;;;;;;;;;;;;;;8.79;47.04;95763.34;4950786;28;20121;-67
2024/03/20 01:09:05;;;;;;;;;;;;;;;8.82;47.03;95768.34;4949380;28;20002;-66
2024/03/20 01:11:31;;;;;;;;;;;;;;;8.82;46.88;95760.38;4949390;28;20384;-67
2024/03/20 01:13:56;;;;;;;;;;;;;;;8.86;47.08;95770.66;4946927;28;19933;-65
2024/03/20 01:16:21;;;;;;;;;;;;;;;8.89;47.41;95767.66;4955297;28;19924;-67
2024/03/20 01:18:47;;;;;;;;;;;;;;;8.90;47.01;95764.00;4950681;28;19933;-66
2024/03/20 01:21:13;;;;;;;;;;;;;;;8.89;47.21;95759.69;4946355;28;20367;-66
2024/03/20 01:23:38;;;;;;;;;;;;;;;8.91;47.16;95753.22;4954320;28;19969;-65
2024/03/20 01:26:03;;;;;;;;;;;;;;;8.95;47.05;95756.44;4953473;28;19957;-65
2024/03/20 01:28:28;;;;;;;;;;;;;;;8.97;46.95;95759.75;4950355;28;19969;-66
2024/03/20 01:30:55;;;;;;;;;;;;;;;9.00;47.14;95762.06;4951246;28;19930;-67
2024/03/20 01:33:20;;;;;;;;;;;;;;;8.98;47.25;95761.44;4953616;28;20416;-67
2024/03/20 01:35:45;;;;;;;;;;;;;;;8.98;46.93;95756.13;4954182;28;19922;-66
2024/03/20 01:38:11;;;;;;;;;;;;;;;9.00;46.98;95759.41;4956031;28;19922;-66
2024/03/20 01:40:36;;;;;;;;;;;;;;;9.03;47.04;95756.44;4950112;28;19914;-66
2024/03/20 01:43:01;;;;;;;;;;;;;;;9.04;46.62;95763.41;4955776;28;19935;-67
2024/03/20 01:45:26;;;;;;;;;;;;;;;9.02;47.05;95756.59;4950480;28;19927;-67
2024/03/20 01:47:52;;;;;;;;;;;;;;;9.00;47.29;95753.25;4956545;28;20653;-65
2024/03/20 01:50:17;;;;;;;;;;;;;;;9.01;47.02;95747.78;4959687;28;20587;-67
2024/03/20 01:52:53;;;;;;;;;;;;;;;9.02;46.90;95745.97;4962903;28;20474;-66
2024/03/20 01:55:18;;;;;;;;;;;;;;;9.01;47.11;95753.09;4955821;28;19930;-66
2024/03/20 01:57:44;;;;;;;;;;;;;;;8.99;46.81;95747.16;4955134;28;20376;-66
2024/03/20 02:00:13;;;;;;;;;;;;;;;9.00;47.17;95748.78;4960272;28;19926;-65
2024/03/20 02:02:38;;;;;;;;;;;;;;;9.00;47.18;95748.78;4964109;28;19930;-66
2024/03/20 02:05:04;;;;;;;;;;;;;;;9.01;47.37;95750.44;4959600;28;19927;-66
2024/03/20 02:07:29;;;;;;;;;;;;;;;8.96;47.36;95752.78;4960923;28;20549;-65
2024/03/20 02:09:54;;;;;;;;;;;;;;;8.98;47.28;95745.50;4956333;28;20011;-65
2024/03/20 02:12:19;;;;;;;;;;;;;;;8.99;47.02;95747.16;4955033;28;19976;-67
2024/03/20 02:14:44;;;;;;;;;;;;;;;9.02;47.39;95753.94;4957970;28;19953;-67
2024/03/20 02:17:10;;;;;;;;;;;;;;;9.03;47.04;95751.13;4960057;28;19969;-66
2024/03/20 02:19:35;;;;;;;;;;;;;;;9.04;46.85;95743.97;4960179;28;19957;-67
2024/03/20 02:22:00;;;;;;;;;;;;;;;9.05;46.89;95754.44;4957642;28;19953;-67
2024/03/20 02:24:27;;;;;;;;;;;;;;;9.02;47.29;95751.28;4953728;28;19923;-67
2024/03/20 02:26:53;;;;;;;;;;;;;;;8.99;47.12;95749.81;4955926;28;19926;-67
2024/03/20 02:29:18;;;;;;;;;;;;;;;9.00;47.02;95747.97;4957975;28;19930;-67
2024/03/20 02:31:43;;;;;;;;;;;;;;;8.99;47.38;95748.97;4957419;28;19922;-68
2024/03/20 02:34:08;;;;;;;;;;;;;;;8.99;47.29;95741.84;4956276;28;20020;-66
2024/03/20 02:36:33;;;;;;;;;;;;;;;8.95;46.98;95741.31;4960110;28;19961;-67
2024/03/20 02:38:59;;;;;;;;;;;;;;;8.96;46.95;95747.47;4956006;28;19961;-68
2024/03/20 02:41:26;;;;;;;;;;;;;;;8.94;47.31;95747.59;4956238;28;19933;-66
2024/03/20 02:43:53;;;;;;;;;;;;;;;8.93;47.45;95751.25;4952075;28;19942;-67
2024/03/20 02:46:19;;;;;;;;;;;;;;;8.90;47.36;95748.09;4952188;28;19926;-67
2024/03/20 02:48:44;;;;;;;;;;;;;;;8.86;47.50;95744.09;4955496;28;19929;-66
2024/03/20 02:51:10;;;;;;;;;;;;;;;8.84;47.42;95741.59;4957505;28;19958;-68
2024/03/20 02:53:35;;;;;;;;;;;;;;;8.83;47.27;95750.56;4954831;28;19948;-66
2024/03/20 02:56:00;;;;;;;;;;;;;;;8.82;47.39;95741.78;4955456;28;20162;-66
2024/03/20 02:58:25;;;;;;;;;;;;;;;8.79;47.28;95738.63;4949614;28;20378;-66
2024/03/20 03:00:51;;;;;;;;;;;;;;;8.75;47.86;95742.59;4956880;28;19929;-66
2024/03/20 03:03:16;;;;;;;;;;;;;;;8.69;48.09;95744.06;4952218;28;19926;-66
2024/03/20 03:05:42;;;;;;;;;;;;;;;8.65;48.00;95742.75;4958238;28;19922;-66
2024/03/20 03:08:07;;;;;;;;;;;;;;;8.62;48.18;95743.06;4952097;28;20017;-66
2024/03/20 03:10:32;;;;;;;;;;;;;;;8.57;48.12;95736.41;4959722;28;20060;-65
2024/03/20 03:12:58;;;;;;;;;;;;;;;8.56;48.34;95739.22;4952194;28;19929;-67
2024/03/20 03:15:23;;;;;;;;;;;;;;;8.51;47.99;95734.44;4953031;28;20189;-67
2024/03/20 03:17:54;;;;;;;;;;;;;;;8.49;48.16;95736.41;4958874;28;20016;-69
2024/03/20 03:20:21;;;;;;;;;;;;;;;8.43;48.21;95735.22;4948824;28;19922;-65
2024/03/20 03:22:46;;;;;;;;;;;;;;;8.41;48.42;95741.69;4950602;28;19937;-67
2024/03/20 03:25:11;;;;;;;;;;;;;;;8.38;48.49;95734.03;4950537;28;19927;-66
2024/03/20 03:27:40;;;;;;;;;;;;;;;8.33;48.47;95737.16;4962274;28;19911;-69
2024/03/20 03:30:07;;;;;;;;;;;;;;;8.29;48.66;95739.31;4960445;28;19930;-67
2024/03/20 03:32:32;;;;;;;;;;;;;;;8.27;48.86;95741.28;4956651;28;19980;-69
2024/03/20 03:34:58;;;;;;;;;;;;;;;8.25;48.65;95745.94;4952269;28;19926;-67
2024/03/20 03:37:23;;;;;;;;;;;;;;;8.24;48.56;95740.81;4952545;28;20008;-67
2024/03/20 03:39:49;;;;;;;;;;;;;;;8.25;48.89;95740.66;4959562;28;19922;-67
2024/03/20 03:42:14;;;;;;;;;;;;;;;8.24;48.89;95743.44;4956890;28;19930;-66
2024/03/20 03:44:40;;;;;;;;;;;;;;;8.20;48.68;95742.13;4960355;28;19937;-67
2024/03/20 03:47:05;;;;;;;;;;;;;;;8.17;49.15;95749.38;4959680;28;19947;-67
2024/03/20 03:49:30;;;;;;;;;;;;;;;8.12;49.21;95750.84;4957171;28;20346;-67
2024/03/20 03:51:55;;;;;;;;;;;;;;;8.09;48.83;95751.19;4953984;28;19942;-67
2024/03/20 03:54:21;;;;;;;;;;;;;;;8.07;49.00;95753.16;4966721;28;19977;-67
2024/03/20 03:56:46;;;;;;;;;;;;;;;8.05;49.01;95746.19;4948771;28;19933;-67
2024/03/20 03:59:11;;;;;;;;;;;;;;;8.05;49.33;95753.31;4958206;28;20601;-67
2024/03/20 04:01:36;;;;;;;;;;;;;;;8.04;49.55;95755.16;4954418;28;20524;-67
2024/03/20 04:04:02;;;;;;;;;;;;;;;8.01;49.18;95744.84;4956642;28;19926;-67
2024/03/20 04:06:27;;;;;;;;;;;;;;;8.00;49.16;95753.81;4954928;28;19945;-66
2024/03/20 04:08:53;;;;;;;;;;;;;;;8.00;49.19;95759.13;4962243;28;19929;-66
2024/03/20 04:11:23;;;;;;;;;;;;;;;8.00;49.16;95750.31;4956647;28;20032;-67
2024/03/20 04:13:48;;;;;;;;;;;;;;;7.98;49.23;95753.13;4956267;28;20004;-66
2024/03/20 04:16:14;;;;;;;;;;;;;;;7.97;49.59;95761.22;4953317;28;19973;-67
2024/03/20 04:18:39;;;;;;;;;;;;;;;7.94;49.16;95758.88;4953708;28;19929;-67
2024/03/20 04:21:04;;;;;;;;;;;;;;;7.92;49.31;95757.22;4952302;28;20537;-66
2024/03/20 04:23:29;;;;;;;;;;;;;;;7.88;49.56;95761.19;4956918;28;19932;-66
2024/03/20 04:25:55;;;;;;;;;;;;;;;7.86;49.37;95762.34;4950501;28;20017;-67
2024/03/20 04:28:20;;;;;;;;;;;;;;;7.81;49.37;95764.63;4957034;28;19978;-67
2024/03/20 04:30:45;;;;;;;;;;;;;;;7.76;49.69;95768.53;4957097;28;19954;-67
2024/03/20 04:33:10;;;;;;;;;;;;;;;7.71;50.29;95764.69;4959834;28;20735;-67
2024/03/20 04:35:36;;;;;;;;;;;;;;;7.65;50.25;95766.16;4958076;28;20789;-67
2024/03/20 04:38:02;;;;;;;;;;;;;;;7.58;50.09;95773.06;4951087;28;20021;-67
2024/03/20 04:40:28;;;;;;;;;;;;;;;7.50;50.26;95769.38;4953669;28;20020;-67
2024/03/20 04:42:53;;;;;;;;;;;;;;;7.43;50.50;95762.19;4959772;28;20460;-67
2024/03/20 04:45:18;;;;;;;;;;;;;;;7.34;50.03;95758.66;4949875;28;19923;-66
2024/03/20 04:47:44;;;;;;;;;;;;;;;7.23;50.38;95757.91;4959990;28;20407;-66
2024/03/20 04:50:10;;;;;;;;;;;;;;;7.11;50.43;95759.16;4952205;28;19937;-66
2024/03/20 04:52:36;;;;;;;;;;;;;;;7.01;51.17;95760.03;4964719;28;19922;-65
2024/03/20 04:55:01;;;;;;;;;;;;;;;6.89;51.04;95755.97;4957393;28;19937;-66
2024/03/20 04:57:27;;;;;;;;;;;;;;;6.84;51.66;95760.88;4958785;28;20010;-66
2024/03/20 04:59:52;;;;;;;;;;;;;;;6.79;51.96;95765.78;4960332;28;20235;-67
2024/03/20 05:02:17;;;;;;;;;;;;;;;6.73;52.36;95765.41;4957416;28;19930;-67
2024/03/20 05:04:42;;;;;;;;;;;;;;;6.66;52.53;95753.75;4951581;28;19929;-67
2024/03/20 05:07:08;;;;;;;;;;;;;;;6.61;52.88;95759.53;4961044;28;19960;-66
2024/03/20 05:09:33;;;;;;;;;;;;;;;6.58;53.00;95758.97;4956584;28;19961;-65
2024/03/20 05:11:58;;;;;;;;;;;;;;;6.56;52.61;95756.47;4956397;28;19926;-66
2024/03/20 05:14:24;;;;;;;;;;;;;;;6.53;53.06;95754.13;4951975;28;20037;-66
2024/03/20 05:16:49;;;;;;;;;;;;;;;6.49;53.01;95753.59;4961082;28;19922;-65
2024/03/20 05:19:14;;;;;;;;;;;;;;;6.46;53.32;95760.97;4953550;28;19990;-66
2024/03/20 05:21:39;;;;;;;;;;;;;;;6.42;53.57;95762.25;4957858;28;19926;-66
2024/03/20 05:24:05;;;;;;;;;;;;;;;6.39;53.07;95758.06;4957031;28;19922;-65
2024/03/20 05:26:30;;;;;;;;;;;;;;;6.34;53.30;95757.69;4961727;28;19937;-66
2024/03/20 05:28:55;;;;;;;;;;;;;;;6.31;53.50;95761.47;4957074;28;19937;-66
2024/03/20 05:31:27;;;;;;;;;;;;;;;6.30;53.61;95761.59;4962071;28;20346;-65
2024/03/20 05:33:53;;;;;;;;;;;;;;;6.27;53.41;95757.44;4966337;28;19926;-65
2024/03/20 05:36:18;;;;;;;;;;;;;;;6.24;53.27;95753.28;4964129;28;19929;-67
2024/03/20 05:38:44;;;;;;;;;;;;;;;6.22;53.34;95760.53;4959275;28;19964;-65
2024/03/20 05:41:09;;;;;;;;;;;;;;;6.19;53.63;95763.47;4960606;28;19929;-66
2024/03/20 05:43:35;;;;;;;;;;;;;;;6.20;53.86;95762.50;4958951;28;20677;-66
2024/03/20 05:46:00;;;;;;;;;;;;;;;6.18;53.85;95764.44;4954409;28;20025;-64
2024/03/20 05:48:25;;;;;;;;;;;;;;;6.17;53.34;95762.78;4957476;28;20593;-65
2024/03/20 05:50:50;;;;;;;;;;;;;;;6.14;52.72;95771.00;4961635;28;19926;-66
2024/03/20 05:53:16;;;;;;;;;;;;;;;6.15;53.44;95774.50;4960437;28;20340;-65
2024/03/20 05:55:41;;;;;;;;;;;;;;;6.15;52.07;95771.84;4963854;28;20589;-67
2024/03/20 05:58:07;;;;;;;;;;;;;;;6.16;52.96;95761.13;4954442;28;19957;-67
2024/03/20 06:00:32;;;;;;;;;;;;;;;6.22;53.84;95776.41;4959021;28;20021;-67
2024/03/20 06:02:57;;;;;;;;;;;;;;;6.29;53.47;95767.88;4957734;28;19926;-67
2024/03/20 06:05:22;;;;;;;;;;;;;;;6.34;53.34;95768.25;4954234;28;19969;-67
2024/03/20 06:07:48;;;;;;;;;;;;;;;6.40;53.45;95772.97;4961065;28;20412;-66
2024/03/20 06:10:13;;;;;;;;;;;;;;;6.43;52.92;95767.38;4958574;28;19941;-66
2024/03/20 06:12:38;;;;;;;;;;;;;;;6.50;53.06;95775.59;4952606;28;20187;-66
2024/03/20 06:15:05;;;;;;;;;;;;;;;6.56;53.44;95771.53;4956053;28;20311;-67
2024/03/20 06:17:31;;;;;;;;;;;;;;;6.63;53.22;95773.41;4954304;28;20471;-67
2024/03/20 06:19:56;;;;;;;;;;;;;;;6.71;52.87;95774.47;4956488;28;19926;-67
2024/03/20 06:22:25;;;;;;;;;;;;;;;6.79;52.67;95779.84;4959149;28;19926;-67
2024/03/20 06:24:50;;;;;;;;;;;;;;;6.85;52.33;95779.28;4955820;28;19926;-67
2024/03/20 06:27:15;;;;;;;;;;;;;;;6.95;52.28;95775.72;4955874;28;19926;-67
2024/03/20 06:29:42;;;;;;;;;;;;;;;7.04;51.62;95781.91;4951412;28;19942;-67
2024/03/20 06:32:07;;;;;;;;;;;;;;;7.16;51.73;95772.75;4959592;28;19926;-67
2024/03/20 06:34:32;;;;;;;;;;;;;;;7.29;51.12;95780.31;4967121;28;19932;-67
2024/03/20 06:36:57;;;;;;;;;;;;;;;7.41;51.15;95781.72;4959719;28;19933;-67
2024/03/20 06:39:23;;;;;;;;;;;;;;;7.57;50.84;95780.19;4957532;28;19934;-67
2024/03/20 06:41:48;;;;;;;;;;;;;;;7.72;50.54;95787.56;4952673;28;19927;-67
2024/03/20 06:44:17;;;;;;;;;;;;;;;7.88;50.14;95778.91;4954248;28;19953;-67
2024/03/20 06:46:42;;;;;;;;;;;;;;;8.09;49.60;95790.97;4955168;28;20001;-67
2024/03/20 06:49:10;;;;;;;;;;;;;;;8.23;49.15;95778.94;4960280;28;19926;-67
2024/03/20 06:51:38;;;;;;;;;;;;;;;8.40;48.54;95790.44;4965754;28;19922;-66
2024/03/20 06:54:11;;;;;;;;;;;;;;;8.53;48.66;95788.16;4954410;28;20061;-67
2024/03/20 06:56:36;;;;;;;;;;;;;;;8.68;47.93;95792.84;4954647;28;19922;-67
2024/03/20 06:59:02;;;;;;;;;;;;;;;8.84;47.57;95791.22;4957386;28;20250;-67
2024/03/20 07:01:27;;;;;;;;;;;;;;;9.00;47.33;95788.63;4953267;28;19926;-67
2024/03/20 07:03:52;;;;;;;;;;;;;;;9.19;47.19;95795.44;4958957;28;19988;-67
2024/03/20 07:06:17;;;;;;;;;;;;;;;9.38;46.79;95785.50;4959132;28;20024;-66
2024/03/20 07:08:42;;;;;;;;;;;;;;;9.57;46.42;95794.97;4953603;28;20022;-65
2024/03/20 07:11:08;;;;;;;;;;;;;;;9.76;46.41;95797.44;4952492;28;19926;-67
2024/03/20 07:13:33;;;;;;;;;;;;;;;9.94;45.68;95800.75;4949320;28;19926;-65
2024/03/20 07:15:58;;;;;;;;;;;;;;;10.17;45.10;95797.38;4956969;28;20554;-66
2024/03/20 07:18:23;;;;;;;;;;;;;;;10.43;45.07;95800.78;4951118;28;19930;-66
2024/03/20 07:20:49;;;;;;;;;;;;;;;10.65;44.29;95799.19;4958133;28;19973;-67
2024/03/20 07:23:15;;;;;;;;;;;;;;;10.91;43.68;95802.56;4959406;28;19985;-67
2024/03/20 07:25:40;;;;;;;;;;;;;;;11.10;43.16;95807.47;4972344;28;19926;-65
2024/03/20 07:28:05;;;;;;;;;;;;;;;11.31;42.73;95807.81;4960262;28;20068;-66
2024/03/20 07:30:30;;;;;;;;;;;;;;;11.49;42.35;95812.84;4958812;28;19965;-65
2024/03/20 07:32:56;;;;;;;;;;;;;;;11.67;42.20;95811.69;4955048;28;19926;-67
2024/03/20 07:35:23;;;;;;;;;;;;;;;11.89;41.91;95816.16;4959076;28;19968;-66
2024/03/20 07:37:48;;;;;;;;;;;;;;;12.07;41.31;95816.84;4967053;28;19961;-67
2024/03/20 07:40:14;;;;;;;;;;;;;;;12.26;41.39;95820.81;4958200;28;19972;-67
2024/03/20 07:42:41;;;;;;;;;;;;;;;12.44;40.38;95822.31;4960815;28;19930;-67
2024/03/20 07:45:07;;;;;;;;;;;;;;;12.43;40.67;95816.13;4951930;28;19930;-67
2024/03/20 07:47:32;;;;;;;;;;;;;;;12.31;41.12;95821.13;4959946;28;19933;-66
2024/03/20 07:49:58;;;;;;;;;;;;;;;12.31;41.61;95822.94;4953879;28;19930;-67
2024/03/20 07:52:25;;;;;;;;;;;;;;;12.21;41.20;95831.22;4962164;28;20322;-66
2024/03/20 07:54:50;;;;;;;;;;;;;;;11.66;42.39;95826.84;4955432;28;19938;-66
2024/03/20 07:57:15;;;;;;;;;;;;;;;12.20;41.76;95833.06;4957215;28;19926;-67
2024/03/20 07:59:41;;;;;;;;;;;;;;;12.73;40.75;95833.97;4957211;28;19932;-67
2024/03/20 08:02:06;;;;;;;;;;;;;;;12.71;40.51;95828.00;4955851;28;20652;-66
2024/03/20 08:04:33;;;;;;;;;;;;;;;12.58;40.18;95832.13;4969806;28;20541;-67
2024/03/20 08:06:58;;;;;;;;;;;;;;;12.83;40.03;95825.66;4958955;28;19925;-66
2024/03/20 08:09:24;;;;;;;;;;;;;;;12.54;40.35;95834.34;4956114;28;19976;-67
2024/03/20 08:11:49;;;;;;;;;;;;;;;12.78;39.71;95823.53;4959357;28;20402;-66
2024/03/20 08:14:15;;;;;;;;;;;;;;;13.11;39.38;95830.31;4957714;28;20343;-66
2024/03/20 08:16:41;;;;;;;;;;;;;;;13.38;38.27;95830.59;4957761;28;20029;-66
2024/03/20 08:19:06;;;;;;;;;;;;;;;13.64;38.41;95832.72;4958631;28;19929;-67
2024/03/20 08:21:32;;;;;;;;;;;;;;;11.71;41.40;95834.31;4943520;28;19926;-67
2024/03/20 08:23:58;;;;;;;;;;;;;;;12.58;39.93;95831.31;4952003;28;19970;-67
2024/03/20 08:26:23;;;;;;;;;;;;;;;13.26;39.39;95825.75;4949010;28;19926;-66
2024/03/20 08:28:49;;;;;;;;;;;;;;;12.69;39.50;95833.53;4949710;28;20564;-66
2024/03/20 08:31:14;;;;;;;;;;;;;;;13.43;38.38;95831.69;4956271;28;19926;-66
2024/03/20 08:33:40;;;;;;;;;;;;;;;13.78;37.98;95833.66;4961213;28;19934;-67
2024/03/20 08:36:08;;;;;;;;;;;;;;;14.05;36.88;95835.72;4961191;28;20430;-67
2024/03/20 08:38:33;;;;;;;;;;;;;;;13.99;37.24;95836.50;4953045;28;19925;-67
2024/03/20 08:40:58;;;;;;;;;;;;;;;13.84;37.59;95832.03;4954703;28;19925;-66
2024/03/20 08:43:24;;;;;;;;;;;;;;;14.02;36.18;95833.44;4955449;28;19937;-66
2024/03/20 08:45:50;;;;;;;;;;;;;;;13.18;37.73;95840.06;4953484;28;19990;-66
2024/03/20 08:48:15;;;;;;;;;;;;;;;13.94;36.39;95832.53;4957519;28;20356;-66
2024/03/20 08:50:43;;;;;;;;;;;;;;;14.07;36.55;95834.50;4965769;28;19929;-66
2024/03/20 08:53:08;;;;;;;;;;;;;;;14.15;36.28;95833.53;4954503;28;20618;-67
2024/03/20 08:55:34;;;;;;;;;;;;;;;14.66;35.20;95833.41;4954916;28;20013;-67
2024/03/20 08:57:59;;;;;;;;;;;;;;;14.51;34.41;95828.19;4956557;28;19922;-66
2024/03/20 09:00:25;;;;;;;;;;;;;;;14.83;34.48;95825.88;4956034;28;19922;-66
2024/03/20 09:02:51;;;;;;;;;;;;;;;14.96;34.46;95825.91;4954482;28;19922;-67
2024/03/20 09:05:16;;;;;;;;;;;;;;;14.97;32.53;95835.63;4958392;28;19933;-66
2024/03/20 09:07:42;;;;;;;;;;;;;;;14.61;34.04;95830.50;4962370;28;20550;-66
2024/03/20 09:10:07;;;;;;;;;;;;;;;13.72;34.13;95839.75;4957686;28;19960;-67
2024/03/20 09:12:32;;;;;;;;;;;;;;;14.21;33.88;95835.41;4965979;28;20351;-66
2024/03/20 09:14:58;;;;;;;;;;;;;;;14.55;34.14;95838.28;4969924;28;19953;-66
2024/03/20 09:17:23;;;;;;;;;;;;;;;15.08;33.29;95833.38;4963554;28;19933;-67
2024/03/20 09:19:48;;;;;;;;;;;;;;;15.40;33.32;95833.66;4966069;28;19948;-67
2024/03/20 09:22:13;;;;;;;;;;;;;;;15.45;33.23;95833.91;4966904;28;19933;-67
2024/03/20 09:24:39;;;;;;;;;;;;;;;15.54;33.17;95839.06;4968958;28;19933;-67
2024/03/20 09:27:04;;;;;;;;;;;;;;;15.37;33.23;95834.09;4957146;28;19922;-67
2024/03/20 09:29:29;;;;;;;;;;;;;;;15.78;31.16;95818.88;4964982;28;20028;-67
2024/03/20 09:31:54;;;;;;;;;;;;;;;16.19;31.79;95832.28;4963598;28;19922;-67
2024/03/20 09:34:20;;;;;;;;;;;;;;;16.33;31.46;95825.03;4957991;28;20352;-67
2024/03/20 09:36:45;;;;;;;;;;;;;;;16.39;31.81;95826.91;4961092;28;19984;-67
2024/03/20 09:39:10;;;;;;;;;;;;;;;16.73;29.90;95816.84;4957688;28;19922;-67
2024/03/20 09:41:37;;;;;;;;;;;;;;;16.50;30.69;95820.06;4959093;28;19927;-67
2024/03/20 09:44:02;;;;;;;;;;;;;;;16.50;31.44;95828.94;4950117;28;19930;-67
2024/03/20 09:46:28;;;;;;;;;;;;;;;14.58;30.88;95821.81;4969026;28;19954;-67
2024/03/20 09:48:53;;;;;;;;;;;;;;;15.71;30.35;95829.59;4973426;28;19926;-67
2024/03/20 09:51:19;;;;;;;;;;;;;;;16.20;30.15;95823.19;4964227;28;20455;-67
2024/03/20 09:53:45;;;;;;;;;;;;;;;16.57;30.52;95814.66;4961656;28;19925;-67
2024/03/20 09:56:10;;;;;;;;;;;;;;;16.77;30.57;95807.34;4963259;28;20362;-67
2024/03/20 09:58:39;;;;;;;;;;;;;;;17.08;30.44;95820.22;4959662;28;20418;-67
2024/03/20 10:01:14;;;;;;;;;;;;;;;16.38;29.48;95817.19;4960615;28;19918;-67
2024/03/20 10:03:39;;;;;;;;;;;;;;;16.59;30.71;95815.28;4960946;28;20499;-67
2024/03/20 10:06:05;;;;;;;;;;;;;;;17.14;30.26;95811.34;4965718;28;19951;-67
2024/03/20 10:08:31;;;;;;;;;;;;;;;16.49;28.54;95819.22;4953362;28;20629;-67
2024/03/20 10:10:56;;;;;;;;;;;;;;;15.57;28.98;95819.91;4967784;28;19980;-67
2024/03/20 10:13:23;;;;;;;;;;;;;;;16.07;27.54;95819.47;4963774;28;19929;-68
2024/03/20 10:15:48;;;;;;;;;;;;;;;16.49;29.66;95813.03;4961258;28;19924;-67
2024/03/20 10:18:14;;;;;;;;;;;;;;;16.26;30.17;95820.47;4961960;28;20025;-67
2024/03/20 10:20:39;;;;;;;;;;;;;;;16.07;28.14;95816.78;4953038;28;20010;-67
2024/03/20 10:23:06;;;;;;;;;;;;;;;16.83;29.31;95807.53;4969843;28;19929;-67
2024/03/20 10:25:31;;;;;;;;;;;;;;;16.62;28.33;95814.84;4958043;28;19926;-67
2024/03/20 10:27:57;;;;;;;;;;;;;;;16.72;29.80;95809.00;4953728;28;20615;-67
2024/03/20 10:30:22;;;;;;;;;;;;;;;17.54;25.98;95810.25;4954221;28;19976;-67
2024/03/20 10:32:48;;;;;;;;;;;;;;;17.15;24.56;95821.06;4961797;28;19929;-67
2024/03/20 10:35:14;;;;;;;;;;;;;;;16.84;25.53;95815.38;4956196;28;20272;-67
2024/03/20 10:37:40;;;;;;;;;;;;;;;17.34;27.06;95813.09;4960185;28;19958;-67
2024/03/20 10:40:07;;;;;;;;;;;;;;;17.71;26.89;95812.44;4958972;28;19923;-66
2024/03/20 10:42:32;;;;;;;;;;;;;;;16.10;25.58;95818.22;4956632;28;19973;-67
2024/03/20 10:44:58;;;;;;;;;;;;;;;16.39;24.86;95824.22;4940432;28;19961;-66
2024/03/20 10:47:23;;;;;;;;;;;;;;;16.38;27.28;95814.50;4953982;28;19965;-67
2024/03/20 10:49:48;;;;;;;;;;;;;;;17.25;28.14;95812.53;4962322;28;20076;-67
2024/03/20 10:52:14;;;;;;;;;;;;;;;17.94;26.87;95811.03;4956386;28;19970;-67
2024/03/20 10:54:40;;;;;;;;;;;;;;;18.44;24.53;95821.75;4966150;28;20016;-66
2024/03/20 10:57:06;;;;;;;;;;;;;;;18.73;24.79;95807.75;4962034;28;20161;-67
2024/03/20 10:59:31;;;;;;;;;;;;;;;18.51;24.94;95815.44;4959598;28;20499;-67
2024/03/20 11:01:57;;;;;;;;;;;;;;;18.44;25.47;95810.13;4959590;28;19972;-67
2024/03/20 11:04:39;;;;;;;;;;;;;;;18.71;25.83;95814.41;4961583;28;19934;-68
2024/03/20 11:07:23;;;;;;;;;;;;;;;19.30;25.78;95809.31;4959220;28;19983;-67
2024/03/20 11:09:50;;;;;;;;;;;;;;;19.28;24.81;95816.00;4962999;28;20352;-67
2024/03/20 11:12:28;;;;;;;;;;;;;;;19.40;24.66;95807.94;4965415;28;20376;-66
2024/03/20 11:14:53;;;;;;;;;;;;;;;19.43;24.93;95820.97;4964275;28;19934;-66
2024/03/20 11:17:20;;;;;;;;;;;;;;;18.63;24.12;95820.94;4961813;28;20037;-67
2024/03/20 11:19:45;;;;;;;;;;;;;;;17.52;25.91;95823.94;4960273;28;20323;-67
2024/03/20 11:22:20;;;;;;;;;;;;;;;17.18;26.28;95817.94;4960724;28;19936;-67
2024/03/20 11:24:45;;;;;;;;;;;;;;;18.42;24.40;95812.22;4954301;28;20395;-67
2024/03/20 11:27:11;;;;;;;;;;;;;;;18.56;24.09;95811.03;4958598;28;19930;-66
2024/03/20 11:29:36;;;;;;;;;;;;;;;19.23;22.61;95815.84;4971903;28;20049;-67
2024/03/20 11:32:01;;;;;;;;;;;;;;;19.23;23.93;95808.56;4961498;28;19965;-67
2024/03/20 11:34:26;;;;;;;;;;;;;;;19.64;24.11;95810.72;4960745;28;19933;-67
2024/03/20 11:36:52;;;;;;;;;;;;;;;19.62;24.57;95813.66;4957534;28;19922;-67
2024/03/20 11:39:17;;;;;;;;;;;;;;;19.39;22.83;95804.44;4962451;28;19937;-66
2024/03/20 11:41:43;;;;;;;;;;;;;;;17.58;25.08;95807.97;4962116;28;20690;-67
2024/03/20 11:44:10;;;;;;;;;;;;;;;18.84;23.31;95800.78;4963580;28;19918;-67
2024/03/20 11:46:35;;;;;;;;;;;;;;;18.90;23.35;95802.56;4951264;28;19929;-68
2024/03/20 11:49:01;;;;;;;;;;;;;;;19.18;23.00;95805.75;4952397;28;19927;-67
2024/03/20 11:51:26;;;;;;;;;;;;;;;19.47;23.91;95797.88;4958772;28;20498;-67
2024/03/20 11:53:52;;;;;;;;;;;;;;;19.66;23.02;95803.19;4964662;28;19926;-67
2024/03/20 11:56:18;;;;;;;;;;;;;;;19.82;24.41;95807.91;4951310;28;19922;-68
2024/03/20 11:58:47;;;;;;;;;;;;;;;19.06;23.30;95801.13;4960431;28;19957;-68
2024/03/20 12:01:12;;;;;;;;;;;;;;;19.00;22.49;95799.31;4958117;28;19929;-66
2024/03/20 12:03:38;;;;;;;;;;;;;;;19.80;21.44;95799.25;4962393;28;20287;-68
2024/03/20 12:06:30;;;;;;;;;;;;;;;19.24;22.21;95796.72;4964566;28;19934;-68
2024/03/20 12:09:00;;;;;;;;;;;;;;;19.44;22.60;95795.63;4963863;28;19926;-68
2024/03/20 12:11:28;;;;;;;;;;;;;;;18.71;23.73;95792.84;4965775;28;19981;-65
2024/03/20 12:13:53;;;;;;;;;;;;;;;19.57;22.16;95795.44;4963459;28;19990;-67
2024/03/20 12:16:22;;;;;;;;;;;;;;;18.95;23.38;95797.31;4966287;28;19922;-66
2024/03/20 12:18:47;;;;;;;;;;;;;;;19.24;23.78;95795.91;4960300;28;19926;-66
2024/03/20 12:21:13;;;;;;;;;;;;;;;19.39;23.38;95796.34;4960104;28;19952;-66
2024/03/20 12:23:39;;;;;;;;;;;;;;;18.99;23.45;95789.59;4960120;28;19925;-66
2024/03/20 12:26:05;;;;;;;;;;;;;;;19.80;24.14;95791.13;4963907;28;19929;-65
2024/03/20 12:28:31;;;;;;;;;;;;;;;20.04;21.94;95785.78;4957310;28;19965;-65
2024/03/20 12:30:56;;;;;;;;;;;;;;;20.29;23.53;95778.47;4966304;28;19966;-66
2024/03/20 12:33:21;;;;;;;;;;;;;;;20.58;23.88;95787.47;4956266;28;19926;-65
2024/03/20 12:35:47;;;;;;;;;;;;;;;21.30;20.60;95786.44;4961740;28;19929;-65
2024/03/20 12:38:13;;;;;;;;;;;;;;;21.28;22.05;95777.75;4962573;28;19953;-65
2024/03/20 12:40:38;;;;;;;;;;;;;;;21.82;19.73;95781.91;4959233;28;19950;-66
2024/03/20 12:43:04;;;;;;;;;;;;;;;21.84;19.51;95780.59;4958634;28;20443;-67
2024/03/20 12:45:29;;;;;;;;;;;;;;;21.56;21.46;95781.50;4962792;28;19929;-67